sensor_id;sensor_type;location;lat;lon;timestamp;P1;durP1;ratioP1;P2;durP2;ratioP2
79229;SDS011;68663;49.122;17.544;2023-04-28T00:02:09;2.83;;;2.00;;
79229;SDS011;68663;49.122;17.544;2023-04-28T00:04:35;3.38;;;2.85;;
79229;SDS011;68663;49.122;17.544;2023-04-28T00:07:00;3.00;;;2.00;;
79229;SDS011;68663;49.122;17.544;2023-04-28T00:09:26;3.58;;;2.28;;
79229;SDS011;68663;49.122;17.544;2023-04-28T00:11:51;2.92;;;1.80;;
79229;SDS011;68663;49.122;17.544;2023-04-28T00:14:17;2.72;;;1.98;;
79229;SDS011;68663;49.122;17.544;2023-04-28T00:16:42;3.55;;;2.13;;
79229;SDS011;68663;49.122;17.544;2023-04-28T00:19:08;2.50;;;1.88;;
79229;SDS011;68663;49.122;17.544;2023-04-28T00:21:33;2.60;;;1.92;;
79229;SDS011;68663;49.122;17.544;2023-04-28T00:23:58;2.60;;;2.10;;
79229;SDS011;68663;49.122;17.544;2023-04-28T00:26:24;4.22;;;2.30;;
79229;SDS011;68663;49.122;17.544;2023-04-28T00:28:50;2.20;;;1.95;;
79229;SDS011;68663;49.122;17.544;2023-04-28T00:31:15;2.25;;;1.80;;
79229;SDS011;68663;49.122;17.544;2023-04-28T00:33:41;3.15;;;1.90;;
79229;SDS011;68663;49.122;17.544;2023-04-28T00:36:07;2.65;;;1.73;;
79229;SDS011;68663;49.122;17.544;2023-04-28T00:38:33;2.65;;;1.80;;
79229;SDS011;68663;49.122;17.544;2023-04-28T00:40:59;3.33;;;2.00;;
79229;SDS011;68663;49.122;17.544;2023-04-28T00:43:25;2.40;;;2.00;;
79229;SDS011;68663;49.122;17.544;2023-04-28T00:45:51;2.88;;;2.00;;
79229;SDS011;68663;49.122;17.544;2023-04-28T00:48:16;2.70;;;1.90;;
79229;SDS011;68663;49.122;17.544;2023-04-28T00:50:43;2.83;;;2.00;;
79229;SDS011;68663;49.122;17.544;2023-04-28T00:53:09;2.85;;;1.90;;
79229;SDS011;68663;49.122;17.544;2023-04-28T00:55:35;2.35;;;1.90;;
79229;SDS011;68663;49.122;17.544;2023-04-28T00:58:01;3.03;;;2.20;;
79229;SDS011;68663;49.122;17.544;2023-04-28T01:00:27;3.40;;;2.20;;
79229;SDS011;68663;49.122;17.544;2023-04-28T01:02:52;2.92;;;1.90;;
79229;SDS011;68663;49.122;17.544;2023-04-28T01:05:19;3.10;;;2.05;;
79229;SDS011;68663;49.122;17.544;2023-04-28T01:07:45;3.00;;;2.08;;
79229;SDS011;68663;49.122;17.544;2023-04-28T01:10:10;2.63;;;1.85;;
79229;SDS011;68663;49.122;17.544;2023-04-28T01:12:36;2.42;;;1.95;;
79229;SDS011;68663;49.122;17.544;2023-04-28T01:15:01;2.50;;;1.80;;
79229;SDS011;68663;49.122;17.544;2023-04-28T01:17:27;2.00;;;1.73;;
79229;SDS011;68663;49.122;17.544;2023-04-28T01:19:52;3.75;;;1.67;;
79229;SDS011;68663;49.122;17.544;2023-04-28T01:22:18;2.70;;;2.00;;
79229;SDS011;68663;49.122;17.544;2023-04-28T01:24:43;2.80;;;2.20;;
79229;SDS011;68663;49.122;17.544;2023-04-28T01:27:09;2.20;;;1.83;;
79229;SDS011;68663;49.122;17.544;2023-04-28T01:29:34;2.10;;;1.60;;
79229;SDS011;68663;49.122;17.544;2023-04-28T01:32:00;1.83;;;1.65;;
79229;SDS011;68663;49.122;17.544;2023-04-28T01:34:26;2.60;;;1.80;;
79229;SDS011;68663;49.122;17.544;2023-04-28T01:36:51;2.40;;;2.00;;
79229;SDS011;68663;49.122;17.544;2023-04-28T01:39:16;2.58;;;1.85;;
79229;SDS011;68663;49.122;17.544;2023-04-28T01:41:42;2.72;;;1.90;;
79229;SDS011;68663;49.122;17.544;2023-04-28T01:44:08;1.90;;;1.55;;
79229;SDS011;68663;49.122;17.544;2023-04-28T01:46:33;3.15;;;1.90;;
79229;SDS011;68663;49.122;17.544;2023-04-28T01:48:59;2.50;;;1.88;;
79229;SDS011;68663;49.122;17.544;2023-04-28T01:51:24;2.65;;;2.13;;
79229;SDS011;68663;49.122;17.544;2023-04-28T01:53:51;2.67;;;2.00;;
79229;SDS011;68663;49.122;17.544;2023-04-28T01:56:16;3.08;;;1.90;;
79229;SDS011;68663;49.122;17.544;2023-04-28T01:58:42;2.08;;;1.80;;
79229;SDS011;68663;49.122;17.544;2023-04-28T02:03:49;2.20;;;1.60;;
79229;SDS011;68663;49.122;17.544;2023-04-28T02:06:15;3.13;;;2.05;;
79229;SDS011;68663;49.122;17.544;2023-04-28T02:08:40;2.70;;;2.13;;
79229;SDS011;68663;49.122;17.544;2023-04-28T02:11:06;2.43;;;1.93;;
79229;SDS011;68663;49.122;17.544;2023-04-28T02:13:31;2.67;;;1.93;;
79229;SDS011;68663;49.122;17.544;2023-04-28T02:15:59;2.30;;;1.75;;
79229;SDS011;68663;49.122;17.544;2023-04-28T02:18:25;2.22;;;1.65;;
79229;SDS011;68663;49.122;17.544;2023-04-28T02:20:51;2.40;;;1.80;;
79229;SDS011;68663;49.122;17.544;2023-04-28T02:23:16;2.30;;;1.80;;
79229;SDS011;68663;49.122;17.544;2023-04-28T02:25:41;1.93;;;1.60;;
79229;SDS011;68663;49.122;17.544;2023-04-28T02:28:07;3.45;;;1.88;;
79229;SDS011;68663;49.122;17.544;2023-04-28T02:30:32;1.92;;;1.70;;
79229;SDS011;68663;49.122;17.544;2023-04-28T02:32:57;2.03;;;1.63;;
79229;SDS011;68663;49.122;17.544;2023-04-28T02:35:23;2.25;;;1.95;;
79229;SDS011;68663;49.122;17.544;2023-04-28T02:37:48;2.33;;;2.10;;
79229;SDS011;68663;49.122;17.544;2023-04-28T02:40:14;2.92;;;1.90;;
79229;SDS011;68663;49.122;17.544;2023-04-28T02:42:39;2.72;;;1.80;;
79229;SDS011;68663;49.122;17.544;2023-04-28T02:45:05;3.07;;;1.90;;
79229;SDS011;68663;49.122;17.544;2023-04-28T02:47:31;2.20;;;1.92;;
79229;SDS011;68663;49.122;17.544;2023-04-28T02:49:56;3.13;;;1.90;;
79229;SDS011;68663;49.122;17.544;2023-04-28T02:52:22;3.65;;;1.90;;
79229;SDS011;68663;49.122;17.544;2023-04-28T02:54:47;2.60;;;1.80;;
79229;SDS011;68663;49.122;17.544;2023-04-28T02:57:13;2.65;;;1.70;;
79229;SDS011;68663;49.122;17.544;2023-04-28T02:59:38;2.33;;;1.70;;
79229;SDS011;68663;49.122;17.544;2023-04-28T03:02:04;2.75;;;1.90;;
79229;SDS011;68663;49.122;17.544;2023-04-28T03:04:29;2.78;;;1.83;;
79229;SDS011;68663;49.122;17.544;2023-04-28T03:06:54;2.57;;;2.07;;
79229;SDS011;68663;49.122;17.544;2023-04-28T03:09:20;2.37;;;1.70;;
79229;SDS011;68663;49.122;17.544;2023-04-28T03:11:45;2.00;;;1.63;;
79229;SDS011;68663;49.122;17.544;2023-04-28T03:14:11;2.33;;;1.80;;
79229;SDS011;68663;49.122;17.544;2023-04-28T03:16:36;2.45;;;1.80;;
79229;SDS011;68663;49.122;17.544;2023-04-28T03:19:02;3.25;;;2.13;;
79229;SDS011;68663;49.122;17.544;2023-04-28T03:21:27;2.22;;;1.83;;
79229;SDS011;68663;49.122;17.544;2023-04-28T03:23:53;2.35;;;1.85;;
79229;SDS011;68663;49.122;17.544;2023-04-28T03:26:19;3.60;;;1.90;;
79229;SDS011;68663;49.122;17.544;2023-04-28T03:28:44;2.35;;;1.83;;
79229;SDS011;68663;49.122;17.544;2023-04-28T03:31:10;2.50;;;2.00;;
79229;SDS011;68663;49.122;17.544;2023-04-28T03:33:35;2.28;;;1.80;;
79229;SDS011;68663;49.122;17.544;2023-04-28T03:36:01;2.70;;;1.80;;
79229;SDS011;68663;49.122;17.544;2023-04-28T03:38:26;2.90;;;1.98;;
79229;SDS011;68663;49.122;17.544;2023-04-28T03:40:52;4.10;;;1.95;;
79229;SDS011;68663;49.122;17.544;2023-04-28T03:43:17;1.98;;;1.67;;
79229;SDS011;68663;49.122;17.544;2023-04-28T03:45:43;1.88;;;1.60;;
79229;SDS011;68663;49.122;17.544;2023-04-28T03:48:08;2.28;;;1.65;;
79229;SDS011;68663;49.122;17.544;2023-04-28T03:50:34;1.95;;;1.63;;
79229;SDS011;68663;49.122;17.544;2023-04-28T03:52:59;2.72;;;2.00;;
79229;SDS011;68663;49.122;17.544;2023-04-28T03:55:25;2.72;;;1.88;;
79229;SDS011;68663;49.122;17.544;2023-04-28T03:57:51;2.22;;;1.83;;
79229;SDS011;68663;49.122;17.544;2023-04-28T04:00:17;4.93;;;1.98;;
79229;SDS011;68663;49.122;17.544;2023-04-28T04:02:42;4.05;;;2.63;;
79229;SDS011;68663;49.122;17.544;2023-04-28T04:05:08;4.88;;;2.33;;
79229;SDS011;68663;49.122;17.544;2023-04-28T04:07:33;4.18;;;2.33;;
79229;SDS011;68663;49.122;17.544;2023-04-28T04:09:59;5.30;;;1.90;;
79229;SDS011;68663;49.122;17.544;2023-04-28T04:12:24;6.38;;;2.50;;
79229;SDS011;68663;49.122;17.544;2023-04-28T04:14:50;4.38;;;2.25;;
79229;SDS011;68663;49.122;17.544;2023-04-28T04:17:15;3.70;;;2.03;;
79229;SDS011;68663;49.122;17.544;2023-04-28T04:19:40;4.32;;;1.85;;
79229;SDS011;68663;49.122;17.544;2023-04-28T04:22:06;6.10;;;2.38;;
79229;SDS011;68663;49.122;17.544;2023-04-28T04:24:32;11.30;;;3.78;;
79229;SDS011;68663;49.122;17.544;2023-04-28T04:26:57;22.63;;;6.05;;
79229;SDS011;68663;49.122;17.544;2023-04-28T04:29:23;28.80;;;8.60;;
79229;SDS011;68663;49.122;17.544;2023-04-28T04:31:48;29.73;;;7.75;;
79229;SDS011;68663;49.122;17.544;2023-04-28T04:34:14;22.38;;;6.90;;
79229;SDS011;68663;49.122;17.544;2023-04-28T04:36:39;21.53;;;5.47;;
79229;SDS011;68663;49.122;17.544;2023-04-28T04:39:05;21.93;;;6.37;;
79229;SDS011;68663;49.122;17.544;2023-04-28T04:41:30;18.37;;;5.53;;
79229;SDS011;68663;49.122;17.544;2023-04-28T04:43:55;16.70;;;5.93;;
79229;SDS011;68663;49.122;17.544;2023-04-28T04:46:21;25.58;;;6.50;;
79229;SDS011;68663;49.122;17.544;2023-04-28T04:48:46;19.48;;;6.25;;
79229;SDS011;68663;49.122;17.544;2023-04-28T04:51:12;19.90;;;6.05;;
79229;SDS011;68663;49.122;17.544;2023-04-28T04:53:37;16.43;;;5.63;;
79229;SDS011;68663;49.122;17.544;2023-04-28T04:56:03;16.35;;;5.80;;
79229;SDS011;68663;49.122;17.544;2023-04-28T04:58:29;19.65;;;5.55;;
79229;SDS011;68663;49.122;17.544;2023-04-28T05:00:54;12.43;;;5.15;;
79229;SDS011;68663;49.122;17.544;2023-04-28T05:03:20;15.30;;;5.43;;
79229;SDS011;68663;49.122;17.544;2023-04-28T05:05:45;12.70;;;5.25;;
79229;SDS011;68663;49.122;17.544;2023-04-28T05:08:11;13.38;;;5.03;;
79229;SDS011;68663;49.122;17.544;2023-04-28T05:10:37;13.43;;;5.05;;
79229;SDS011;68663;49.122;17.544;2023-04-28T05:13:03;10.07;;;4.38;;
79229;SDS011;68663;49.122;17.544;2023-04-28T05:15:28;14.60;;;5.20;;
79229;SDS011;68663;49.122;17.544;2023-04-28T05:17:54;12.25;;;4.80;;
79229;SDS011;68663;49.122;17.544;2023-04-28T05:20:20;11.32;;;5.05;;
79229;SDS011;68663;49.122;17.544;2023-04-28T05:22:46;9.90;;;4.25;;
79229;SDS011;68663;49.122;17.544;2023-04-28T05:25:11;12.65;;;4.50;;
79229;SDS011;68663;49.122;17.544;2023-04-28T05:27:37;15.15;;;4.90;;
79229;SDS011;68663;49.122;17.544;2023-04-28T05:30:04;10.82;;;4.72;;
79229;SDS011;68663;49.122;17.544;2023-04-28T05:32:32;10.63;;;5.53;;
79229;SDS011;68663;49.122;17.544;2023-04-28T05:34:58;16.10;;;6.18;;
79229;SDS011;68663;49.122;17.544;2023-04-28T05:37:24;13.52;;;6.82;;
79229;SDS011;68663;49.122;17.544;2023-04-28T05:39:49;11.15;;;7.18;;
79229;SDS011;68663;49.122;17.544;2023-04-28T05:42:14;12.73;;;7.75;;
79229;SDS011;68663;49.122;17.544;2023-04-28T05:44:40;11.77;;;7.80;;
79229;SDS011;68663;49.122;17.544;2023-04-28T05:47:05;8.83;;;7.40;;
79229;SDS011;68663;49.122;17.544;2023-04-28T05:49:31;10.50;;;6.90;;
79229;SDS011;68663;49.122;17.544;2023-04-28T05:51:56;15.57;;;7.85;;
79229;SDS011;68663;49.122;17.544;2023-04-28T05:54:21;11.13;;;7.57;;
79229;SDS011;68663;49.122;17.544;2023-04-28T05:56:47;9.77;;;6.93;;
79229;SDS011;68663;49.122;17.544;2023-04-28T05:59:13;11.57;;;7.15;;
79229;SDS011;68663;49.122;17.544;2023-04-28T06:01:38;11.93;;;7.57;;
79229;SDS011;68663;49.122;17.544;2023-04-28T06:04:03;10.27;;;6.10;;
79229;SDS011;68663;49.122;17.544;2023-04-28T06:06:29;8.43;;;6.72;;
79229;SDS011;68663;49.122;17.544;2023-04-28T06:08:55;8.35;;;6.10;;
79229;SDS011;68663;49.122;17.544;2023-04-28T06:11:21;14.38;;;6.65;;
79229;SDS011;68663;49.122;17.544;2023-04-28T06:13:47;10.63;;;6.65;;
79229;SDS011;68663;49.122;17.544;2023-04-28T06:16:13;11.02;;;6.25;;
79229;SDS011;68663;49.122;17.544;2023-04-28T06:18:40;11.02;;;7.20;;
79229;SDS011;68663;49.122;17.544;2023-04-28T06:21:05;10.00;;;5.85;;
79229;SDS011;68663;49.122;17.544;2023-04-28T06:23:30;10.40;;;6.40;;
79229;SDS011;68663;49.122;17.544;2023-04-28T06:25:56;9.85;;;6.10;;
79229;SDS011;68663;49.122;17.544;2023-04-28T06:28:21;6.53;;;5.85;;
79229;SDS011;68663;49.122;17.544;2023-04-28T06:30:47;8.13;;;6.47;;
79229;SDS011;68663;49.122;17.544;2023-04-28T06:33:12;10.63;;;5.72;;
79229;SDS011;68663;49.122;17.544;2023-04-28T06:35:38;10.23;;;5.82;;
79229;SDS011;68663;49.122;17.544;2023-04-28T06:38:04;7.47;;;5.43;;
79229;SDS011;68663;49.122;17.544;2023-04-28T06:40:30;8.73;;;5.03;;
79229;SDS011;68663;49.122;17.544;2023-04-28T06:42:56;7.10;;;4.93;;
79229;SDS011;68663;49.122;17.544;2023-04-28T06:45:21;7.70;;;5.30;;
79229;SDS011;68663;49.122;17.544;2023-04-28T06:47:47;7.82;;;5.40;;
79229;SDS011;68663;49.122;17.544;2023-04-28T06:50:12;8.38;;;5.35;;
79229;SDS011;68663;49.122;17.544;2023-04-28T06:52:37;6.88;;;5.30;;
79229;SDS011;68663;49.122;17.544;2023-04-28T06:55:04;5.50;;;4.50;;
79229;SDS011;68663;49.122;17.544;2023-04-28T06:57:33;6.57;;;4.72;;
79229;SDS011;68663;49.122;17.544;2023-04-28T06:59:59;7.80;;;5.00;;
79229;SDS011;68663;49.122;17.544;2023-04-28T07:02:25;6.20;;;4.72;;
79229;SDS011;68663;49.122;17.544;2023-04-28T07:04:51;6.47;;;4.68;;
79229;SDS011;68663;49.122;17.544;2023-04-28T07:07:16;8.00;;;5.28;;
79229;SDS011;68663;49.122;17.544;2023-04-28T07:09:42;6.57;;;4.90;;
79229;SDS011;68663;49.122;17.544;2023-04-28T07:12:07;6.80;;;4.70;;
79229;SDS011;68663;49.122;17.544;2023-04-28T07:14:33;6.95;;;4.85;;
79229;SDS011;68663;49.122;17.544;2023-04-28T07:16:58;6.93;;;4.55;;
79229;SDS011;68663;49.122;17.544;2023-04-28T07:19:24;8.05;;;4.68;;
79229;SDS011;68663;49.122;17.544;2023-04-28T07:21:49;7.18;;;4.68;;
79229;SDS011;68663;49.122;17.544;2023-04-28T07:24:15;6.50;;;4.68;;
79229;SDS011;68663;49.122;17.544;2023-04-28T07:26:40;8.20;;;5.18;;
79229;SDS011;68663;49.122;17.544;2023-04-28T07:29:05;9.02;;;5.28;;
79229;SDS011;68663;49.122;17.544;2023-04-28T07:31:33;13.27;;;5.20;;
79229;SDS011;68663;49.122;17.544;2023-04-28T07:33:58;8.40;;;4.20;;
79229;SDS011;68663;49.122;17.544;2023-04-28T07:36:24;16.45;;;5.28;;
79229;SDS011;68663;49.122;17.544;2023-04-28T07:38:50;29.70;;;7.28;;
79229;SDS011;68663;49.122;17.544;2023-04-28T07:41:16;51.38;;;9.35;;
79229;SDS011;68663;49.122;17.544;2023-04-28T07:43:42;34.05;;;8.45;;
79229;SDS011;68663;49.122;17.544;2023-04-28T07:46:08;29.10;;;7.00;;
79229;SDS011;68663;49.122;17.544;2023-04-28T07:48:34;25.52;;;7.32;;
79229;SDS011;68663;49.122;17.544;2023-04-28T07:51:00;22.05;;;6.60;;
79229;SDS011;68663;49.122;17.544;2023-04-28T07:53:25;28.73;;;7.28;;
79229;SDS011;68663;49.122;17.544;2023-04-28T07:55:51;19.33;;;6.15;;
79229;SDS011;68663;49.122;17.544;2023-04-28T07:58:16;17.42;;;6.10;;
79229;SDS011;68663;49.122;17.544;2023-04-28T08:00:42;20.38;;;6.32;;
79229;SDS011;68663;49.122;17.544;2023-04-28T08:03:07;19.73;;;6.30;;
79229;SDS011;68663;49.122;17.544;2023-04-28T08:05:33;26.00;;;6.43;;
79229;SDS011;68663;49.122;17.544;2023-04-28T08:07:58;18.48;;;5.53;;
79229;SDS011;68663;49.122;17.544;2023-04-28T08:10:24;21.40;;;6.63;;
79229;SDS011;68663;49.122;17.544;2023-04-28T08:12:50;17.00;;;6.13;;
79229;SDS011;68663;49.122;17.544;2023-04-28T08:15:16;13.73;;;5.57;;
79229;SDS011;68663;49.122;17.544;2023-04-28T08:17:42;11.05;;;5.43;;
79229;SDS011;68663;49.122;17.544;2023-04-28T08:20:08;13.85;;;5.72;;
79229;SDS011;68663;49.122;17.544;2023-04-28T08:22:34;19.73;;;6.13;;
79229;SDS011;68663;49.122;17.544;2023-04-28T08:24:59;19.13;;;5.95;;
79229;SDS011;68663;49.122;17.544;2023-04-28T08:27:25;18.02;;;6.28;;
79229;SDS011;68663;49.122;17.544;2023-04-28T08:29:51;18.80;;;5.97;;
79229;SDS011;68663;49.122;17.544;2023-04-28T08:32:17;15.20;;;5.22;;
79229;SDS011;68663;49.122;17.544;2023-04-28T08:34:42;14.95;;;5.55;;
79229;SDS011;68663;49.122;17.544;2023-04-28T08:37:08;11.90;;;5.65;;
79229;SDS011;68663;49.122;17.544;2023-04-28T08:39:33;13.98;;;5.53;;
79229;SDS011;68663;49.122;17.544;2023-04-28T08:42:03;13.20;;;4.80;;
79229;SDS011;68663;49.122;17.544;2023-04-28T08:44:32;15.18;;;4.93;;
79229;SDS011;68663;49.122;17.544;2023-04-28T08:47:03;14.52;;;5.75;;
79229;SDS011;68663;49.122;17.544;2023-04-28T08:49:35;11.93;;;4.68;;
79229;SDS011;68663;49.122;17.544;2023-04-28T08:52:02;10.73;;;5.25;;
79229;SDS011;68663;49.122;17.544;2023-04-28T08:54:41;14.65;;;5.15;;
79229;SDS011;68663;49.122;17.544;2023-04-28T08:57:08;10.77;;;4.75;;
79229;SDS011;68663;49.122;17.544;2023-04-28T08:59:37;7.05;;;3.80;;
79229;SDS011;68663;49.122;17.544;2023-04-28T09:02:04;9.98;;;4.82;;
79229;SDS011;68663;49.122;17.544;2023-04-28T09:04:29;9.60;;;5.22;;
79229;SDS011;68663;49.122;17.544;2023-04-28T09:06:55;9.85;;;4.80;;
79229;SDS011;68663;49.122;17.544;2023-04-28T09:09:24;10.17;;;5.33;;
79229;SDS011;68663;49.122;17.544;2023-04-28T09:11:51;11.10;;;4.82;;
79229;SDS011;68663;49.122;17.544;2023-04-28T09:14:27;8.65;;;4.60;;
79229;SDS011;68663;49.122;17.544;2023-04-28T09:16:54;11.15;;;4.40;;
79229;SDS011;68663;49.122;17.544;2023-04-28T09:19:20;9.00;;;4.55;;
79229;SDS011;68663;49.122;17.544;2023-04-28T09:21:52;7.90;;;4.18;;
79229;SDS011;68663;49.122;17.544;2023-04-28T09:26:58;10.25;;;4.93;;
79229;SDS011;68663;49.122;17.544;2023-04-28T09:29:31;8.00;;;4.00;;
79229;SDS011;68663;49.122;17.544;2023-04-28T09:32:19;7.57;;;3.88;;
79229;SDS011;68663;49.122;17.544;2023-04-28T09:39:44;11.02;;;4.55;;
79229;SDS011;68663;49.122;17.544;2023-04-28T09:42:30;9.38;;;4.07;;
79229;SDS011;68663;49.122;17.544;2023-04-28T09:44:57;7.47;;;4.18;;
79229;SDS011;68663;49.122;17.544;2023-04-28T09:47:23;7.30;;;3.55;;
79229;SDS011;68663;49.122;17.544;2023-04-28T09:49:53;6.78;;;3.97;;
79229;SDS011;68663;49.122;17.544;2023-04-28T09:52:24;5.70;;;3.45;;
79229;SDS011;68663;49.122;17.544;2023-04-28T09:54:50;7.13;;;3.55;;
79229;SDS011;68663;49.122;17.544;2023-04-28T09:57:17;7.25;;;4.22;;
79229;SDS011;68663;49.122;17.544;2023-04-28T09:59:44;11.13;;;4.05;;
79229;SDS011;68663;49.122;17.544;2023-04-28T10:02:16;7.07;;;3.72;;
79229;SDS011;68663;49.122;17.544;2023-04-28T10:04:46;7.63;;;3.65;;
79229;SDS011;68663;49.122;17.544;2023-04-28T10:07:15;8.20;;;4.07;;
79229;SDS011;68663;49.122;17.544;2023-04-28T10:09:42;8.23;;;3.88;;
79229;SDS011;68663;49.122;17.544;2023-04-28T10:12:18;7.07;;;3.95;;
79229;SDS011;68663;49.122;17.544;2023-04-28T10:14:45;9.45;;;3.85;;
79229;SDS011;68663;49.122;17.544;2023-04-28T10:19:41;7.80;;;3.50;;
79229;SDS011;68663;49.122;17.544;2023-04-28T10:22:28;8.63;;;3.97;;
79229;SDS011;68663;49.122;17.544;2023-04-28T10:25:25;7.38;;;3.65;;
79229;SDS011;68663;49.122;17.544;2023-04-28T10:27:52;6.47;;;3.67;;
79229;SDS011;68663;49.122;17.544;2023-04-28T10:30:19;5.28;;;3.83;;
79229;SDS011;68663;49.122;17.544;2023-04-28T10:32:47;5.00;;;3.05;;
79229;SDS011;68663;49.122;17.544;2023-04-28T10:35:53;4.93;;;3.25;;
79229;SDS011;68663;49.122;17.544;2023-04-28T10:38:19;5.97;;;3.22;;
79229;SDS011;68663;49.122;17.544;2023-04-28T10:40:48;4.95;;;3.22;;
79229;SDS011;68663;49.122;17.544;2023-04-28T10:48:21;6.05;;;3.05;;
79229;SDS011;68663;49.122;17.544;2023-04-28T12:21:38;9.77;;;2.85;;
79229;SDS011;68663;49.122;17.544;2023-04-28T12:26:39;6.90;;;2.80;;
79229;SDS011;68663;49.122;17.544;2023-04-28T12:29:05;5.85;;;2.55;;
79229;SDS011;68663;49.122;17.544;2023-04-28T12:31:31;5.97;;;3.13;;
79229;SDS011;68663;49.122;17.544;2023-04-28T12:33:56;9.98;;;2.60;;
79229;SDS011;68663;49.122;17.544;2023-04-28T12:36:22;4.60;;;2.40;;
79229;SDS011;68663;49.122;17.544;2023-04-28T12:38:47;6.63;;;2.70;;
79229;SDS011;68663;49.122;17.544;2023-04-28T12:41:13;10.05;;;2.95;;
79229;SDS011;68663;49.122;17.544;2023-04-28T12:43:39;7.57;;;3.40;;
79229;SDS011;68663;49.122;17.544;2023-04-28T12:46:05;8.90;;;3.25;;
79229;SDS011;68663;49.122;17.544;2023-04-28T12:48:32;8.75;;;3.33;;
79229;SDS011;68663;49.122;17.544;2023-04-28T12:50:58;8.55;;;3.40;;
79229;SDS011;68663;49.122;17.544;2023-04-28T12:53:24;10.55;;;3.75;;
79229;SDS011;68663;49.122;17.544;2023-04-28T12:55:50;10.70;;;4.18;;
79229;SDS011;68663;49.122;17.544;2023-04-28T12:58:16;8.07;;;4.18;;
79229;SDS011;68663;49.122;17.544;2023-04-28T13:00:42;6.50;;;3.90;;
79229;SDS011;68663;49.122;17.544;2023-04-28T13:03:07;6.43;;;3.83;;
79229;SDS011;68663;49.122;17.544;2023-04-28T13:05:33;6.22;;;3.65;;
79229;SDS011;68663;49.122;17.544;2023-04-28T13:07:59;5.65;;;3.50;;
79229;SDS011;68663;49.122;17.544;2023-04-28T13:10:24;5.22;;;3.75;;
79229;SDS011;68663;49.122;17.544;2023-04-28T13:12:50;6.82;;;4.00;;
79229;SDS011;68663;49.122;17.544;2023-04-28T13:15:16;6.18;;;3.78;;
79229;SDS011;68663;49.122;17.544;2023-04-28T13:17:41;5.35;;;3.83;;
79229;SDS011;68663;49.122;17.544;2023-04-28T13:20:07;10.10;;;3.80;;
79229;SDS011;68663;49.122;17.544;2023-04-28T13:22:33;6.70;;;3.70;;
79229;SDS011;68663;49.122;17.544;2023-04-28T13:24:58;4.40;;;3.20;;
79229;SDS011;68663;49.122;17.544;2023-04-28T13:27:24;5.45;;;3.33;;
79229;SDS011;68663;49.122;17.544;2023-04-28T13:29:49;5.13;;;3.63;;
79229;SDS011;68663;49.122;17.544;2023-04-28T13:32:15;4.50;;;3.28;;
79229;SDS011;68663;49.122;17.544;2023-04-28T13:34:40;5.75;;;3.65;;
79229;SDS011;68663;49.122;17.544;2023-04-28T13:37:06;5.18;;;3.47;;
79229;SDS011;68663;49.122;17.544;2023-04-28T13:39:31;6.53;;;3.90;;
79229;SDS011;68663;49.122;17.544;2023-04-28T13:41:57;6.13;;;3.83;;
79229;SDS011;68663;49.122;17.544;2023-04-28T13:44:22;8.65;;;4.07;;
79229;SDS011;68663;49.122;17.544;2023-04-28T13:46:48;4.85;;;3.33;;
79229;SDS011;68663;49.122;17.544;2023-04-28T13:49:13;5.05;;;3.60;;
79229;SDS011;68663;49.122;17.544;2023-04-28T13:51:39;4.55;;;3.30;;
79229;SDS011;68663;49.122;17.544;2023-04-28T13:54:05;6.22;;;3.40;;
79229;SDS011;68663;49.122;17.544;2023-04-28T13:56:35;4.88;;;3.53;;
79229;SDS011;68663;49.122;17.544;2023-04-28T13:59:01;3.45;;;3.00;;
79229;SDS011;68663;49.122;17.544;2023-04-28T14:01:27;5.50;;;3.60;;
79229;SDS011;68663;49.122;17.544;2023-04-28T14:03:53;4.88;;;3.05;;
79229;SDS011;68663;49.122;17.544;2023-04-28T14:06:18;6.20;;;3.60;;
79229;SDS011;68663;49.122;17.544;2023-04-28T14:08:45;3.97;;;3.03;;
79229;SDS011;68663;49.122;17.544;2023-04-28T14:11:11;4.40;;;3.10;;
79229;SDS011;68663;49.122;17.544;2023-04-28T14:13:37;4.20;;;2.90;;
79229;SDS011;68663;49.122;17.544;2023-04-28T14:16:02;4.30;;;3.20;;
79229;SDS011;68663;49.122;17.544;2023-04-28T14:18:31;5.70;;;3.13;;
79229;SDS011;68663;49.122;17.544;2023-04-28T14:20:58;4.30;;;2.83;;
79229;SDS011;68663;49.122;17.544;2023-04-28T14:23:24;3.47;;;2.92;;
79229;SDS011;68663;49.122;17.544;2023-04-28T14:25:51;4.07;;;3.03;;
79229;SDS011;68663;49.122;17.544;2023-04-28T14:28:19;3.45;;;2.90;;
79229;SDS011;68663;49.122;17.544;2023-04-28T14:30:45;3.30;;;2.60;;
79229;SDS011;68663;49.122;17.544;2023-04-28T14:33:11;4.13;;;2.97;;
79229;SDS011;68663;49.122;17.544;2023-04-28T14:35:36;6.23;;;3.43;;
79229;SDS011;68663;49.122;17.544;2023-04-28T14:38:02;4.78;;;3.20;;
79229;SDS011;68663;49.122;17.544;2023-04-28T14:40:27;3.40;;;2.83;;
79229;SDS011;68663;49.122;17.544;2023-04-28T14:42:53;5.43;;;3.25;;
79229;SDS011;68663;49.122;17.544;2023-04-28T14:45:18;4.43;;;3.13;;
79229;SDS011;68663;49.122;17.544;2023-04-28T14:47:44;3.65;;;2.90;;
79229;SDS011;68663;49.122;17.544;2023-04-28T14:50:09;4.47;;;2.90;;
79229;SDS011;68663;49.122;17.544;2023-04-28T14:52:35;6.15;;;3.20;;
79229;SDS011;68663;49.122;17.544;2023-04-28T14:55:01;3.55;;;3.05;;
79229;SDS011;68663;49.122;17.544;2023-04-28T14:57:29;3.60;;;2.72;;
79229;SDS011;68663;49.122;17.544;2023-04-28T14:59:54;5.88;;;2.80;;
79229;SDS011;68663;49.122;17.544;2023-04-28T15:02:20;4.18;;;2.70;;
79229;SDS011;68663;49.122;17.544;2023-04-28T15:04:50;3.13;;;2.58;;
79229;SDS011;68663;49.122;17.544;2023-04-28T15:07:16;3.47;;;2.50;;
79229;SDS011;68663;49.122;17.544;2023-04-28T15:09:42;4.32;;;3.03;;
79229;SDS011;68663;49.122;17.544;2023-04-28T15:12:07;6.32;;;2.45;;
79229;SDS011;68663;49.122;17.544;2023-04-28T15:14:33;4.38;;;3.13;;
79229;SDS011;68663;49.122;17.544;2023-04-28T15:16:59;4.43;;;2.75;;
79229;SDS011;68663;49.122;17.544;2023-04-28T15:19:24;5.07;;;2.53;;
79229;SDS011;68663;49.122;17.544;2023-04-28T15:21:50;3.35;;;2.53;;
79229;SDS011;68663;49.122;17.544;2023-04-28T15:24:17;7.50;;;2.75;;
79229;SDS011;68663;49.122;17.544;2023-04-28T15:29:09;13.67;;;3.67;;
79229;SDS011;68663;49.122;17.544;2023-04-28T15:31:35;20.23;;;5.47;;
79229;SDS011;68663;49.122;17.544;2023-04-28T15:34:01;14.13;;;5.38;;
79229;SDS011;68663;49.122;17.544;2023-04-28T15:36:26;21.40;;;6.43;;
79229;SDS011;68663;49.122;17.544;2023-04-28T15:38:52;16.73;;;6.63;;
79229;SDS011;68663;49.122;17.544;2023-04-28T15:41:18;22.75;;;7.80;;
79229;SDS011;68663;49.122;17.544;2023-04-28T15:43:43;27.08;;;7.57;;
79229;SDS011;68663;49.122;17.544;2023-04-28T15:46:10;18.63;;;6.13;;
79229;SDS011;68663;49.122;17.544;2023-04-28T15:48:36;19.27;;;6.28;;
79229;SDS011;68663;49.122;17.544;2023-04-28T15:51:05;23.00;;;6.30;;
79229;SDS011;68663;49.122;17.544;2023-04-28T15:53:31;24.65;;;6.03;;
79229;SDS011;68663;49.122;17.544;2023-04-28T15:55:57;17.65;;;6.30;;
79229;SDS011;68663;49.122;17.544;2023-04-28T15:58:22;17.90;;;6.38;;
79229;SDS011;68663;49.122;17.544;2023-04-28T16:00:48;17.05;;;5.97;;
79229;SDS011;68663;49.122;17.544;2023-04-28T16:03:13;14.93;;;6.22;;
79229;SDS011;68663;49.122;17.544;2023-04-28T16:05:39;16.25;;;5.78;;
79229;SDS011;68663;49.122;17.544;2023-04-28T16:08:04;12.45;;;5.20;;
79229;SDS011;68663;49.122;17.544;2023-04-28T16:10:30;19.65;;;6.72;;
79229;SDS011;68663;49.122;17.544;2023-04-28T16:12:56;13.50;;;5.18;;
79229;SDS011;68663;49.122;17.544;2023-04-28T16:15:21;14.73;;;5.63;;
79229;SDS011;68663;49.122;17.544;2023-04-28T16:17:47;15.65;;;5.50;;
79229;SDS011;68663;49.122;17.544;2023-04-28T16:20:13;17.05;;;5.50;;